This is the latest recevied weather packets stored in our database for station/object DC4XK-10. If no packets are shown the sender has not sent any weather packets the latest 10 day(s).
| Time | Temp. | Humidity | Pressure | Rain* | Wind** | Luminosity | Snow |
|---|---|---|---|---|---|---|---|
| 1777912731 | 16.67° C | 73% | 1010.9 hPa | 0 mm | 0.45 m/s, 290° | - | - |
| 1777912131 | 16.67° C | 72% | 1010.9 hPa | 0 mm | 0.45 m/s, 340° | - | - |
| 1777911531 | 17.78° C | 69% | 1010.8 hPa | 0 mm | 1.79 m/s, 274° | - | - |
| 1777910931 | 17.78° C | 70% | 1010.9 hPa | 0 mm | 0 m/s | - | - |
| 1777910330 | 17.78° C | 69% | 1011 hPa | 0 mm | 0.45 m/s, 247° | - | - |
| 1777909732 | 17.78° C | 69% | 1010.9 hPa | 0 mm | 0.45 m/s, 260° | - | - |
| 1777909131 | 18.89° C | 68% | 1010.9 hPa | 0 mm | 1.34 m/s, 173° | - | - |
| 1777908531 | 17.78° C | 68% | 1010.9 hPa | 0 mm | 1.79 m/s, 30° | - | - |
| 1777907933 | 18.33° C | 65% | 1010.9 hPa | 0 mm | 2.68 m/s, 328° | - | - |
| 1777907331 | 17.22° C | 71% | 1011.1 hPa | 0 mm | 1.34 m/s, 261° | - | - |
| 1777906730 | 17.78° C | 67% | 1011.1 hPa | 0 mm | 1.34 m/s, 186° | - | - |
| 1777906134 | 17.78° C | 68% | 1011.2 hPa | 0 mm | 0 m/s | - | - |
| 1777905531 | 17.78° C | 67% | 1011.1 hPa | 0 mm | 0.45 m/s, 136° | - | - |
| 1777904931 | 17.78° C | 66% | 1011.2 hPa | 0 mm | 0.89 m/s, 284° | - | - |
| 1777904332 | 18.33° C | 66% | 1011.2 hPa | 0 mm | 1.79 m/s, 75° | - | - |
| 1777903730 | 18.89° C | 64% | 1011.5 hPa | 0 mm | 1.34 m/s, 326° | - | - |
| 1777903131 | 17.78° C | 68% | 1011.4 hPa | 0 mm | 1.79 m/s, 312° | - | - |
| 1777902531 | 17.78° C | 67% | 1011.6 hPa | 0 mm | 0.89 m/s, 247° | - | - |
| 1777901930 | 17.22° C | 69% | 1011.5 hPa | 0 mm | 1.79 m/s, 334° | - | - |
| 1777901331 | 16.67° C | 70% | 1011.5 hPa | 0 mm | 3.13 m/s, 324° | - | - |
| 1777900731 | 16.67° C | 71% | 1011.5 hPa | 0 mm | 1.79 m/s, 322° | - | - |
| 1777900130 | 17.22° C | 68% | 1011.6 hPa | 0 mm | 2.68 m/s, 317° | - | - |
| 1777899531 | 17.22° C | 69% | 1011.5 hPa | 0 mm | 2.68 m/s, 293° | - | - |
| 1777898931 | 16.67° C | 72% | 1011.5 hPa | 0 mm | 2.24 m/s, 306° | - | - |
| 1777898331 | 16.11° C | 73% | 1011.4 hPa | 0 mm | 1.34 m/s, 281° | - | - |
* Rain latest hour (hover to see other rain measurements)
** Current wind speed in m/s (hover to see current wind gust speed)